Detalii statie Girov TCE 3 BRAZI [000011A2]

Toti senzorii

Date Temperatura solului [C]Precipitatii [mm]Voltaj baterie [mV]Leaf Wetness [Min]HC Air temperature [C]HC Relative humidity [%]Punctul de roua [C]
medieminmaxsumaultimatimpmedieminmaxmediemediemin
2018-12-09 15:00:00 0.4 6688 0 3.55 3.32 3.82 100 3.5 3.3
2018-12-09 16:00:00 0.2 6650 0 3.33 2.48 3.88 100 3.2 2.4
2018-12-09 17:00:00 0 6590 0 1.56 0.77 2.28 100 1.5 0.7
2018-12-09 18:00:00 0 6562 0 1.71 -0.28 2.7 100 1.7 -0.1
2018-12-09 19:00:00 0 6542 0 0.31 -0.19 1.53 100 0.3 0
2018-12-09 20:00:00 0 6532 0 -0.88 -1.52 -0.25 100 -0.7 -1.4
2018-12-09 21:00:00 0 6522 0 -1.44 -2.01 -0.98 100 -1.3 -1.9
2018-12-09 22:00:00 0 6512 0 -1.76 -2.17 -1.58 100 -1.6 -2
2018-12-09 23:00:00 0 6494 0 -1.8 -2.12 -1.34 100 -1.6 -2
2018-12-10 00:00:00 0 6484 0 -1.35 -1.44 -1.25 100 -1.2 -1.3
2018-12-10 01:00:00 0 6484 0 -1.46 -1.57 -1.3 100 -1.3 -1.4
2018-12-10 02:00:00 0 6484 0 -1.58 -1.78 -1.42 100 -1.4 -1.6
2018-12-10 03:00:00 0 6474 0 -1.13 -1.31 -1.02 100 -0.9 -1.2
2018-12-10 04:00:00 0 6474 0 -1.1 -1.2 -0.99 100 -0.9 -1.1
2018-12-10 05:00:00 0 6464 0 -1.57 -2.08 -1.1 100 -1.4 -1.9
2018-12-10 06:00:00 0 6454 0 -1.61 -2.09 -1.09 100 -1.4 -1.9
2018-12-10 07:00:00 0 6464 0 -2.36 -2.84 -1.88 100 -2.2 -2.7
2018-12-10 08:00:00 0 6464 0 -2.76 -3.06 -2.42 100 -2.6 -2.9
2018-12-10 09:00:00 0 6610 0 -2.68 -3.59 -1.7 100 -2.5 -3.4
2018-12-10 10:00:00 0 6914 0 0.11 -1.73 2.26 100 0.1 -1.6
2018-12-10 11:00:00 0.2 6756 0 2.01 1.27 2.89 100 1.9 1.2
2018-12-10 12:00:00 0 6766 0 2.01 1.08 2.78 100 1.9 1
2018-12-10 13:00:00 0.4 6756 0 3.38 1.88 4.61 100 3.3 1.8
2018-12-10 14:00:00 0.6 6728 0 4.1 3.73 4.55 100 4 3.7
2018-12-10 15:00:00 0.4 6708 0 4.27 3.83 4.96 100 4.2 3.8
2018-12-10 16:00:00 0.4 6668 0 3.33 2.45 3.79 100 3.2 2.4
2018-12-10 17:00:00 0 6630 0 2.05 1.66 2.34 100 2 1.6
2018-12-10 18:00:00 0 6610 0 1.76 1.54 2.05 100 1.7 1.5
2018-12-10 19:00:00 0.6 6590 0 2.99 1.67 3.66 100 2.9 1.6
2018-12-10 20:00:00 0 6590 0 2.15 1.67 3 100 2.1 1.6
2018-12-10 21:00:00 0.2 6582 0 1.77 1.47 1.95 100 1.7 1.4
2018-12-10 22:00:00 0.4 6572 0 1.74 1.61 1.94 100 1.6 1.6
2018-12-10 23:00:00 0.2 6562 0 1.65 1.53 1.94 100 1.6 1.5
2018-12-11 00:00:00 0.2 6552 0 1.38 1.18 1.56 100 1.3 1.1
2018-12-11 01:00:00 0 6542 0 1.08 0.86 1.37 100 1 0.8
2018-12-11 02:00:00 0 6532 0 0.77 0.72 0.82 100 0.7 0.7
2018-12-11 03:00:00 0 6522 0 0.7 0.46 0.98 100 0.6 0.4
2018-12-11 04:00:00 0 6532 0 0.49 0.39 0.78 100 0.4 0.3
2018-12-11 05:00:00 0 6512 0 0.46 0.37 0.51 100 0.4 0.3
2018-12-11 06:00:00 0 6512 0 0.41 0.21 0.48 100 0.3 0.2
2018-12-11 07:00:00 0 6502 0 0.01 -0.21 0.3 100 0 -0.1
2018-12-11 08:00:00 0 6502 0 -0.05 -0.2 0.07 100 0 -0.1
2018-12-11 09:00:00 0 6494 0 0.1 -0.04 0.26 100 0 0
2018-12-11 10:00:00 0 6542 0 0.61 0.34 1.08 100 0.5 0.3
2018-12-11 11:00:00 0.2 6678 0 2.29 1.29 2.89 100 2.2 1.2
2018-12-11 12:00:00 0.2 6756 0 3.07 2.77 3.56 100 3 2.7
2018-12-11 13:00:00 0.2 6748 0 3.3 2.47 4.69 100 3.2 2.4
2018-12-11 14:00:00 0.2 6738 0 2.78 2.45 3.05 100 2.7 2.4